createdAt,value
2023-05-24T05:04:12.793Z,68.60
2023-05-24T05:14:20.896Z,67.90
2023-05-24T05:19:25.835Z,68.40
2023-05-24T05:24:29.682Z,68.00
2023-05-24T05:29:33.335Z,68.10
2023-05-24T05:34:38.350Z,67.10
2023-05-24T05:49:51.392Z,66.80
2023-05-24T06:05:04.394Z,78.40
2023-05-24T06:10:08.892Z,65.30
2023-05-24T06:20:19.604Z,75.50
2023-05-24T06:35:33.718Z,63.60
2023-05-24T06:45:41.651Z,62.80
2023-05-24T06:50:48.046Z,62.00
2023-05-24T07:06:01.737Z,60.80
2023-05-24T07:16:09.689Z,60.50
2023-05-24T07:21:14.643Z,70.70
2023-05-24T07:31:22.714Z,69.10
2023-05-24T07:36:34.778Z,59.30
2023-05-24T07:46:43.198Z,58.00
2023-05-24T07:51:48.884Z,71.10
2023-05-24T07:56:52.429Z,70.00
2023-05-24T08:07:10.183Z,56.10
2023-05-24T08:12:16.974Z,68.00
2023-05-24T08:22:26.459Z,55.00
2023-05-24T08:27:30.647Z,66.70
2023-05-24T08:37:39.842Z,53.40
2023-05-24T08:42:43.723Z,64.90
2023-05-24T08:47:48.801Z,51.70
2023-05-24T08:52:55.484Z,50.90
2023-05-24T08:58:00.905Z,50.00
2023-05-24T09:03:06.420Z,49.00
2023-05-24T09:08:13.614Z,48.30
2023-05-24T09:13:18.328Z,47.60
2023-05-24T09:18:22.206Z,57.20
2023-05-24T09:23:28.176Z,46.30
2023-05-24T09:28:34.015Z,46.00
2023-05-24T09:38:43.664Z,53.50
2023-05-24T09:43:51.292Z,45.50
2023-05-24T09:48:58.831Z,52.60
2023-05-24T09:54:04.472Z,44.70
2023-05-24T09:59:09.939Z,52.30
2023-05-24T10:09:19.304Z,51.70
2023-05-24T10:19:27.270Z,42.10
2023-05-24T10:24:37.169Z,41.30
2023-05-24T10:30:02.493Z,40.90
2023-05-24T10:35:08.503Z,41.20
2023-05-24T10:40:21.096Z,39.90
2023-05-24T10:45:42.724Z,40.30
2023-05-24T10:55:55.539Z,38.80
2023-05-24T11:11:24.521Z,37.70
2023-05-24T11:16:38.781Z,38.00
2023-05-24T11:21:45.531Z,37.30
2023-05-24T11:26:52.733Z,36.60
2023-05-24T11:32:01.512Z,36.20
2023-05-24T11:42:11.498Z,35.60
2023-05-24T11:52:18.884Z,35.10
2023-05-24T11:57:31.077Z,34.90
2023-05-24T12:02:34.748Z,39.80
2023-05-24T12:12:46.769Z,34.10
2023-05-24T12:22:56.912Z,33.60
2023-05-24T12:28:01.887Z,33.40
2023-05-24T12:33:05.742Z,33.90
2023-05-24T12:38:10.679Z,33.80
2023-05-24T12:43:16.326Z,33.50
2023-05-24T12:53:26.017Z,32.70
2023-05-24T12:58:31.023Z,33.00
2023-05-24T13:03:35.070Z,33.00
2023-05-24T13:13:46.158Z,32.40
2023-05-24T13:18:49.921Z,32.90
2023-05-24T13:23:53.371Z,33.00
2023-05-24T13:29:27.876Z,32.60
2023-05-24T13:34:21.979Z,33.30
2023-05-24T13:39:25.649Z,33.20
2023-05-24T13:44:30.776Z,33.30
2023-05-24T13:54:38.256Z,33.00
2023-05-24T13:59:43.442Z,33.90
2023-05-24T14:04:47.080Z,34.20
2023-05-24T14:09:50.807Z,34.50
2023-05-24T14:14:59.669Z,34.60
2023-05-24T14:20:04.063Z,34.90
2023-05-24T14:25:09.788Z,35.00
2023-05-24T14:30:16.111Z,35.30
2023-05-24T14:40:23.843Z,35.10
2023-05-24T14:45:28.865Z,35.80
2023-05-24T14:50:32.448Z,35.90
2023-05-24T15:00:42.433Z,41.50
2023-05-24T15:05:46.575Z,36.50
2023-05-24T15:10:50.121Z,36.60
2023-05-24T15:15:56.692Z,36.80
2023-05-24T15:21:00.367Z,37.10
2023-05-24T15:26:04.023Z,37.30
2023-05-24T15:31:08.995Z,37.40
2023-05-24T15:36:14.383Z,37.70
2023-05-24T15:41:18.090Z,37.80
2023-05-24T15:46:23.789Z,37.90
2023-05-24T15:56:33.866Z,38.40
2023-05-24T16:01:38.911Z,38.60
2023-05-24T16:06:42.853Z,38.80
2023-05-24T16:11:47.571Z,39.10
2023-05-24T16:16:52.707Z,39.30
2023-05-24T16:21:56.363Z,39.90
2023-05-24T16:26:59.964Z,40.70
2023-05-24T16:32:05.237Z,41.10
2023-05-24T16:37:08.882Z,41.90
2023-05-24T16:47:17.728Z,42.20
2023-05-24T16:52:21.673Z,43.20
2023-05-24T16:57:25.257Z,43.60
2023-05-24T17:02:30.206Z,43.90
2023-05-24T17:07:33.970Z,44.40
2023-05-24T17:12:37.631Z,44.90
2023-05-24T17:17:42.675Z,44.70
2023-05-24T17:22:46.428Z,45.40
2023-05-24T17:32:55.665Z,45.60
2023-05-24T17:37:59.310Z,46.30
2023-05-24T17:43:02.988Z,46.30
2023-05-24T17:48:08.172Z,46.50
2023-05-24T17:53:30.007Z,46.80
2023-05-24T17:58:37.336Z,47.10
2023-05-24T18:03:42.816Z,47.40
2023-05-24T18:08:46.436Z,47.80
2023-05-24T18:13:50.034Z,48.10
2023-05-24T18:18:55.101Z,48.10
2023-05-24T18:23:58.713Z,48.70
2023-05-24T18:34:07.847Z,48.90
2023-05-24T18:39:11.600Z,49.70
2023-05-24T18:49:21.378Z,49.50
2023-05-24T18:54:25.054Z,50.10
2023-05-24T18:59:31.640Z,50.50
2023-05-24T19:04:36.669Z,56.60
2023-05-24T19:14:44.400Z,50.50
2023-05-24T19:19:49.409Z,51.40
2023-05-24T19:24:53.214Z,51.40
2023-05-24T19:29:59.098Z,52.00
2023-05-24T19:35:04.159Z,51.80
2023-05-24T19:40:08.737Z,52.40
2023-05-24T19:45:13.561Z,52.40
2023-05-24T19:50:19.649Z,52.60
2023-05-24T19:55:23.331Z,53.00
2023-05-24T20:00:27.020Z,53.20
2023-05-24T20:05:32.027Z,53.00
2023-05-24T20:10:36.516Z,53.80
2023-05-24T20:15:39.864Z,53.60
2023-05-24T20:20:44.813Z,53.80
2023-05-24T20:35:59.583Z,54.00
2023-05-24T20:41:04.304Z,54.80
2023-05-24T20:46:08.123Z,55.10
2023-05-24T20:51:13.201Z,55.30
2023-05-24T20:56:17.876Z,55.80
2023-05-24T21:01:21.589Z,55.90
2023-05-24T21:06:26.714Z,56.00
2023-05-24T21:11:30.408Z,56.40
2023-05-24T21:21:39.363Z,56.50
2023-05-24T21:26:43.019Z,57.00
2023-05-24T21:36:51.960Z,57.20
2023-05-24T21:41:55.631Z,58.20
2023-05-24T21:46:59.412Z,58.20
2023-05-24T21:52:04.523Z,58.50
2023-05-24T21:57:08.206Z,58.90
2023-05-24T22:02:12.004Z,59.10
2023-05-24T22:07:17.144Z,59.00
2023-05-24T22:12:20.730Z,59.70
2023-05-24T22:17:25.693Z,59.90
2023-05-24T22:22:30.648Z,60.40
2023-05-24T22:27:35.908Z,60.50
